sensor_id;sensor_type;location;lat;lon;timestamp;P1;durP1;ratioP1;P2;durP2;ratioP2
2966;SDS011;1493;51.496;7.210;2023-02-27T00:02:21;7.30;;;2.50;;
2966;SDS011;1493;51.496;7.210;2023-02-27T00:04:48;4.28;;;3.10;;
2966;SDS011;1493;51.496;7.210;2023-02-27T00:07:15;5.25;;;3.75;;
2966;SDS011;1493;51.496;7.210;2023-02-27T00:09:42;5.25;;;3.10;;
2966;SDS011;1493;51.496;7.210;2023-02-27T00:12:09;6.22;;;2.70;;
2966;SDS011;1493;51.496;7.210;2023-02-27T00:14:37;5.43;;;2.80;;
2966;SDS011;1493;51.496;7.210;2023-02-27T00:17:03;4.30;;;3.00;;
2966;SDS011;1493;51.496;7.210;2023-02-27T00:19:32;5.45;;;3.22;;
2966;SDS011;1493;51.496;7.210;2023-02-27T00:21:58;3.83;;;2.60;;
2966;SDS011;1493;51.496;7.210;2023-02-27T00:24:25;4.30;;;3.15;;
2966;SDS011;1493;51.496;7.210;2023-02-27T00:26:52;3.85;;;3.05;;
2966;SDS011;1493;51.496;7.210;2023-02-27T00:29:19;6.07;;;3.22;;
2966;SDS011;1493;51.496;7.210;2023-02-27T00:31:45;4.93;;;2.65;;
2966;SDS011;1493;51.496;7.210;2023-02-27T00:34:12;7.35;;;3.33;;
2966;SDS011;1493;51.496;7.210;2023-02-27T00:36:41;4.53;;;2.42;;
2966;SDS011;1493;51.496;7.210;2023-02-27T00:39:07;5.18;;;4.05;;
2966;SDS011;1493;51.496;7.210;2023-02-27T00:41:34;4.90;;;3.00;;
2966;SDS011;1493;51.496;7.210;2023-02-27T00:44:01;6.13;;;2.47;;
2966;SDS011;1493;51.496;7.210;2023-02-27T00:46:28;3.85;;;2.55;;
2966;SDS011;1493;51.496;7.210;2023-02-27T00:48:55;4.63;;;2.63;;
2966;SDS011;1493;51.496;7.210;2023-02-27T00:51:21;5.68;;;2.67;;
2966;SDS011;1493;51.496;7.210;2023-02-27T00:53:49;7.03;;;2.47;;
2966;SDS011;1493;51.496;7.210;2023-02-27T00:56:16;5.03;;;3.15;;
2966;SDS011;1493;51.496;7.210;2023-02-27T00:58:43;4.95;;;3.17;;
2966;SDS011;1493;51.496;7.210;2023-02-27T01:01:10;4.28;;;2.85;;
2966;SDS011;1493;51.496;7.210;2023-02-27T01:03:37;5.43;;;2.78;;
2966;SDS011;1493;51.496;7.210;2023-02-27T01:06:04;3.40;;;2.20;;
2966;SDS011;1493;51.496;7.210;2023-02-27T01:08:31;6.72;;;2.35;;
2966;SDS011;1493;51.496;7.210;2023-02-27T01:10:59;8.05;;;3.00;;
2966;SDS011;1493;51.496;7.210;2023-02-27T01:13:26;3.60;;;2.30;;
2966;SDS011;1493;51.496;7.210;2023-02-27T01:15:52;5.32;;;2.60;;
2966;SDS011;1493;51.496;7.210;2023-02-27T01:18:19;5.65;;;2.67;;
2966;SDS011;1493;51.496;7.210;2023-02-27T01:20:50;4.28;;;2.20;;
2966;SDS011;1493;51.496;7.210;2023-02-27T01:23:17;6.63;;;3.00;;
2966;SDS011;1493;51.496;7.210;2023-02-27T01:25:45;3.40;;;1.95;;
2966;SDS011;1493;51.496;7.210;2023-02-27T01:28:13;4.40;;;2.05;;
2966;SDS011;1493;51.496;7.210;2023-02-27T01:30:41;3.72;;;2.22;;
2966;SDS011;1493;51.496;7.210;2023-02-27T01:33:08;5.22;;;2.28;;
2966;SDS011;1493;51.496;7.210;2023-02-27T01:35:35;4.95;;;2.70;;
2966;SDS011;1493;51.496;7.210;2023-02-27T01:38:01;5.50;;;2.67;;
2966;SDS011;1493;51.496;7.210;2023-02-27T01:40:28;2.88;;;2.08;;
2966;SDS011;1493;51.496;7.210;2023-02-27T01:42:55;5.82;;;3.25;;
2966;SDS011;1493;51.496;7.210;2023-02-27T01:45:27;6.57;;;3.00;;
2966;SDS011;1493;51.496;7.210;2023-02-27T01:48:01;5.75;;;3.20;;
2966;SDS011;1493;51.496;7.210;2023-02-27T01:50:33;6.10;;;2.92;;
2966;SDS011;1493;51.496;7.210;2023-02-27T01:53:02;6.03;;;2.60;;
2966;SDS011;1493;51.496;7.210;2023-02-27T01:55:32;4.10;;;2.60;;
2966;SDS011;1493;51.496;7.210;2023-02-27T01:58:03;4.45;;;3.05;;
2966;SDS011;1493;51.496;7.210;2023-02-27T02:00:32;4.93;;;2.50;;
2966;SDS011;1493;51.496;7.210;2023-02-27T02:03:00;2.97;;;2.42;;
2966;SDS011;1493;51.496;7.210;2023-02-27T02:05:33;5.05;;;2.58;;
2966;SDS011;1493;51.496;7.210;2023-02-27T02:08:00;4.63;;;3.13;;
2966;SDS011;1493;51.496;7.210;2023-02-27T02:10:28;5.40;;;2.95;;
2966;SDS011;1493;51.496;7.210;2023-02-27T02:12:56;4.97;;;3.40;;
2966;SDS011;1493;51.496;7.210;2023-02-27T02:15:24;5.60;;;3.25;;
2966;SDS011;1493;51.496;7.210;2023-02-27T02:18:00;5.82;;;3.03;;
2966;SDS011;1493;51.496;7.210;2023-02-27T02:20:44;5.30;;;2.80;;
2966;SDS011;1493;51.496;7.210;2023-02-27T02:23:50;3.63;;;2.40;;
2966;SDS011;1493;51.496;7.210;2023-02-27T02:26:43;6.07;;;2.83;;
2966;SDS011;1493;51.496;7.210;2023-02-27T02:29:35;5.10;;;2.55;;
2966;SDS011;1493;51.496;7.210;2023-02-27T02:32:34;4.28;;;2.20;;
2966;SDS011;1493;51.496;7.210;2023-02-27T02:35:28;5.93;;;2.70;;
2966;SDS011;1493;51.496;7.210;2023-02-27T02:38:22;3.70;;;2.60;;
2966;SDS011;1493;51.496;7.210;2023-02-27T02:41:08;6.85;;;3.22;;
2966;SDS011;1493;51.496;7.210;2023-02-27T02:43:40;5.00;;;2.97;;
2966;SDS011;1493;51.496;7.210;2023-02-27T02:46:21;8.25;;;2.78;;
2966;SDS011;1493;51.496;7.210;2023-02-27T02:48:55;4.40;;;2.80;;
2966;SDS011;1493;51.496;7.210;2023-02-27T02:51:31;4.10;;;3.00;;
2966;SDS011;1493;51.496;7.210;2023-02-27T02:54:04;5.07;;;2.80;;
2966;SDS011;1493;51.496;7.210;2023-02-27T02:56:35;5.85;;;3.40;;
2966;SDS011;1493;51.496;7.210;2023-02-27T02:59:07;4.97;;;2.70;;
2966;SDS011;1493;51.496;7.210;2023-02-27T03:01:39;3.67;;;2.95;;
2966;SDS011;1493;51.496;7.210;2023-02-27T03:04:11;6.43;;;3.72;;
2966;SDS011;1493;51.496;7.210;2023-02-27T03:06:41;5.35;;;3.42;;
2966;SDS011;1493;51.496;7.210;2023-02-27T03:09:15;5.20;;;2.88;;
2966;SDS011;1493;51.496;7.210;2023-02-27T03:11:44;6.03;;;3.35;;
2966;SDS011;1493;51.496;7.210;2023-02-27T03:14:15;4.85;;;3.25;;
2966;SDS011;1493;51.496;7.210;2023-02-27T03:16:51;5.70;;;3.13;;
2966;SDS011;1493;51.496;7.210;2023-02-27T03:19:22;6.85;;;3.30;;
2966;SDS011;1493;51.496;7.210;2023-02-27T03:21:53;6.82;;;3.15;;
2966;SDS011;1493;51.496;7.210;2023-02-27T03:24:27;4.75;;;3.40;;
2966;SDS011;1493;51.496;7.210;2023-02-27T03:26:57;5.05;;;2.90;;
2966;SDS011;1493;51.496;7.210;2023-02-27T03:29:29;5.28;;;3.05;;
2966;SDS011;1493;51.496;7.210;2023-02-27T03:32:00;4.05;;;2.92;;
2966;SDS011;1493;51.496;7.210;2023-02-27T03:34:32;4.78;;;3.70;;
2966;SDS011;1493;51.496;7.210;2023-02-27T03:37:02;6.57;;;4.38;;
2966;SDS011;1493;51.496;7.210;2023-02-27T03:39:38;6.28;;;3.15;;
2966;SDS011;1493;51.496;7.210;2023-02-27T03:42:13;5.07;;;3.35;;
2966;SDS011;1493;51.496;7.210;2023-02-27T03:44:51;6.10;;;3.83;;
2966;SDS011;1493;51.496;7.210;2023-02-27T03:47:21;5.93;;;2.65;;
2966;SDS011;1493;51.496;7.210;2023-02-27T03:49:49;4.78;;;3.00;;
2966;SDS011;1493;51.496;7.210;2023-02-27T03:52:16;6.57;;;3.63;;
2966;SDS011;1493;51.496;7.210;2023-02-27T03:54:45;5.20;;;2.80;;
2966;SDS011;1493;51.496;7.210;2023-02-27T03:57:16;4.85;;;4.00;;
2966;SDS011;1493;51.496;7.210;2023-02-27T03:59:43;5.53;;;3.60;;
2966;SDS011;1493;51.496;7.210;2023-02-27T04:02:10;5.10;;;3.33;;
2966;SDS011;1493;51.496;7.210;2023-02-27T04:04:37;7.97;;;2.80;;
2966;SDS011;1493;51.496;7.210;2023-02-27T04:07:05;9.00;;;4.35;;
2966;SDS011;1493;51.496;7.210;2023-02-27T04:09:53;6.40;;;3.42;;
2966;SDS011;1493;51.496;7.210;2023-02-27T04:15:32;5.70;;;3.35;;
2966;SDS011;1493;51.496;7.210;2023-02-27T04:18:13;3.92;;;3.42;;
2966;SDS011;1493;51.496;7.210;2023-02-27T04:20:50;6.82;;;4.28;;
2966;SDS011;1493;51.496;7.210;2023-02-27T04:23:22;5.85;;;3.53;;
2966;SDS011;1493;51.496;7.210;2023-02-27T04:25:58;3.95;;;2.90;;
2966;SDS011;1493;51.496;7.210;2023-02-27T04:28:37;3.67;;;2.80;;
2966;SDS011;1493;51.496;7.210;2023-02-27T04:31:09;5.78;;;3.67;;
2966;SDS011;1493;51.496;7.210;2023-02-27T04:33:43;7.97;;;3.55;;
2966;SDS011;1493;51.496;7.210;2023-02-27T04:36:15;5.75;;;3.50;;
2966;SDS011;1493;51.496;7.210;2023-02-27T04:38:49;4.13;;;2.92;;
2966;SDS011;1493;51.496;7.210;2023-02-27T04:41:25;5.28;;;3.30;;
2966;SDS011;1493;51.496;7.210;2023-02-27T04:43:57;11.13;;;3.20;;
2966;SDS011;1493;51.496;7.210;2023-02-27T04:46:26;5.32;;;3.35;;
2966;SDS011;1493;51.496;7.210;2023-02-27T04:48:56;5.32;;;3.63;;
2966;SDS011;1493;51.496;7.210;2023-02-27T04:51:26;7.18;;;3.05;;
2966;SDS011;1493;51.496;7.210;2023-02-27T04:54:01;5.20;;;3.17;;
2966;SDS011;1493;51.496;7.210;2023-02-27T04:56:35;14.30;;;3.80;;
2966;SDS011;1493;51.496;7.210;2023-02-27T04:59:07;6.63;;;3.53;;
2966;SDS011;1493;51.496;7.210;2023-02-27T05:04:04;5.95;;;3.40;;
2966;SDS011;1493;51.496;7.210;2023-02-27T05:06:35;4.38;;;3.50;;
2966;SDS011;1493;51.496;7.210;2023-02-27T05:09:06;4.28;;;2.90;;
2966;SDS011;1493;51.496;7.210;2023-02-27T05:11:39;8.35;;;4.22;;
2966;SDS011;1493;51.496;7.210;2023-02-27T05:14:15;5.07;;;3.15;;
2966;SDS011;1493;51.496;7.210;2023-02-27T05:16:46;4.82;;;3.22;;
2966;SDS011;1493;51.496;7.210;2023-02-27T05:19:18;10.35;;;4.10;;
2966;SDS011;1493;51.496;7.210;2023-02-27T05:21:47;7.03;;;3.50;;
2966;SDS011;1493;51.496;7.210;2023-02-27T05:24:22;7.35;;;3.47;;
2966;SDS011;1493;51.496;7.210;2023-02-27T05:27:03;6.50;;;3.92;;
2966;SDS011;1493;51.496;7.210;2023-02-27T05:29:40;6.55;;;3.78;;
2966;SDS011;1493;51.496;7.210;2023-02-27T05:32:13;9.13;;;4.55;;
2966;SDS011;1493;51.496;7.210;2023-02-27T05:34:51;6.32;;;3.75;;
2966;SDS011;1493;51.496;7.210;2023-02-27T05:37:23;5.82;;;3.65;;
2966;SDS011;1493;51.496;7.210;2023-02-27T05:39:54;4.97;;;3.35;;
2966;SDS011;1493;51.496;7.210;2023-02-27T05:42:23;7.70;;;3.88;;
2966;SDS011;1493;51.496;7.210;2023-02-27T05:44:54;4.43;;;3.60;;
2966;SDS011;1493;51.496;7.210;2023-02-27T05:47:26;6.97;;;4.40;;
2966;SDS011;1493;51.496;7.210;2023-02-27T05:49:58;5.05;;;3.22;;
2966;SDS011;1493;51.496;7.210;2023-02-27T05:52:30;6.72;;;4.30;;
2966;SDS011;1493;51.496;7.210;2023-02-27T05:55:00;7.57;;;4.30;;
2966;SDS011;1493;51.496;7.210;2023-02-27T05:57:31;5.88;;;3.72;;
2966;SDS011;1493;51.496;7.210;2023-02-27T06:00:05;7.93;;;3.47;;
2966;SDS011;1493;51.496;7.210;2023-02-27T06:02:36;4.65;;;3.55;;
2966;SDS011;1493;51.496;7.210;2023-02-27T06:05:03;8.90;;;3.90;;
2966;SDS011;1493;51.496;7.210;2023-02-27T06:07:32;4.80;;;4.18;;
2966;SDS011;1493;51.496;7.210;2023-02-27T06:09:59;7.20;;;4.28;;
2966;SDS011;1493;51.496;7.210;2023-02-27T06:12:26;7.72;;;4.32;;
2966;SDS011;1493;51.496;7.210;2023-02-27T06:14:54;5.18;;;3.67;;
2966;SDS011;1493;51.496;7.210;2023-02-27T06:17:21;7.00;;;3.72;;
2966;SDS011;1493;51.496;7.210;2023-02-27T06:19:47;5.13;;;3.42;;
2966;SDS011;1493;51.496;7.210;2023-02-27T06:22:14;4.75;;;4.10;;
2966;SDS011;1493;51.496;7.210;2023-02-27T06:24:41;9.23;;;3.28;;
2966;SDS011;1493;51.496;7.210;2023-02-27T06:27:08;6.00;;;3.90;;
2966;SDS011;1493;51.496;7.210;2023-02-27T06:29:35;5.55;;;3.58;;
2966;SDS011;1493;51.496;7.210;2023-02-27T06:32:03;9.45;;;4.10;;
2966;SDS011;1493;51.496;7.210;2023-02-27T06:34:30;5.88;;;4.55;;
2966;SDS011;1493;51.496;7.210;2023-02-27T06:36:56;10.07;;;4.68;;
2966;SDS011;1493;51.496;7.210;2023-02-27T06:39:23;6.68;;;4.05;;
2966;SDS011;1493;51.496;7.210;2023-02-27T06:41:50;7.65;;;4.13;;
2966;SDS011;1493;51.496;7.210;2023-02-27T06:44:17;4.38;;;3.55;;
2966;SDS011;1493;51.496;7.210;2023-02-27T06:46:44;6.85;;;3.85;;
2966;SDS011;1493;51.496;7.210;2023-02-27T06:49:12;7.68;;;4.50;;
2966;SDS011;1493;51.496;7.210;2023-02-27T06:51:39;6.85;;;4.40;;
2966;SDS011;1493;51.496;7.210;2023-02-27T06:54:06;6.90;;;5.00;;
2966;SDS011;1493;51.496;7.210;2023-02-27T06:56:33;5.45;;;4.38;;
2966;SDS011;1493;51.496;7.210;2023-02-27T06:59:00;7.32;;;3.88;;
2966;SDS011;1493;51.496;7.210;2023-02-27T07:01:27;5.60;;;4.20;;
2966;SDS011;1493;51.496;7.210;2023-02-27T07:03:54;5.45;;;4.85;;
2966;SDS011;1493;51.496;7.210;2023-02-27T07:06:22;5.70;;;4.15;;
2966;SDS011;1493;51.496;7.210;2023-02-27T07:08:49;6.60;;;3.95;;
2966;SDS011;1493;51.496;7.210;2023-02-27T07:11:15;6.88;;;5.35;;
2966;SDS011;1493;51.496;7.210;2023-02-27T07:13:42;6.60;;;4.60;;
2966;SDS011;1493;51.496;7.210;2023-02-27T07:16:09;7.70;;;4.82;;
2966;SDS011;1493;51.496;7.210;2023-02-27T07:18:36;13.07;;;5.45;;
2966;SDS011;1493;51.496;7.210;2023-02-27T07:21:03;10.18;;;4.60;;
2966;SDS011;1493;51.496;7.210;2023-02-27T07:23:31;5.15;;;4.47;;
2966;SDS011;1493;51.496;7.210;2023-02-27T07:25:59;7.53;;;5.05;;
2966;SDS011;1493;51.496;7.210;2023-02-27T07:28:25;8.00;;;4.05;;
2966;SDS011;1493;51.496;7.210;2023-02-27T07:30:53;5.30;;;4.32;;
2966;SDS011;1493;51.496;7.210;2023-02-27T07:33:20;11.55;;;5.05;;
2966;SDS011;1493;51.496;7.210;2023-02-27T07:35:48;6.65;;;4.22;;
2966;SDS011;1493;51.496;7.210;2023-02-27T07:38:18;8.10;;;4.47;;
2966;SDS011;1493;51.496;7.210;2023-02-27T07:40:49;9.02;;;4.60;;
2966;SDS011;1493;51.496;7.210;2023-02-27T07:43:17;6.70;;;4.20;;
2966;SDS011;1493;51.496;7.210;2023-02-27T07:45:44;8.40;;;3.80;;
2966;SDS011;1493;51.496;7.210;2023-02-27T07:48:11;6.38;;;4.38;;
2966;SDS011;1493;51.496;7.210;2023-02-27T07:50:38;6.22;;;4.85;;
2966;SDS011;1493;51.496;7.210;2023-02-27T07:53:05;8.68;;;4.00;;
2966;SDS011;1493;51.496;7.210;2023-02-27T07:55:32;5.72;;;4.07;;
2966;SDS011;1493;51.496;7.210;2023-02-27T07:58:00;10.05;;;4.22;;
2966;SDS011;1493;51.496;7.210;2023-02-27T08:00:27;8.30;;;3.97;;
2966;SDS011;1493;51.496;7.210;2023-02-27T08:03:25;8.82;;;4.38;;
2966;SDS011;1493;51.496;7.210;2023-02-27T08:05:49;5.63;;;3.80;;
2966;SDS011;1493;51.496;7.210;2023-02-27T08:08:16;7.03;;;3.88;;
2966;SDS011;1493;51.496;7.210;2023-02-27T08:10:43;6.00;;;4.00;;
2966;SDS011;1493;51.496;7.210;2023-02-27T08:13:11;7.95;;;3.38;;
2966;SDS011;1493;51.496;7.210;2023-02-27T08:15:38;5.30;;;3.78;;
2966;SDS011;1493;51.496;7.210;2023-02-27T08:18:05;11.60;;;4.22;;
2966;SDS011;1493;51.496;7.210;2023-02-27T08:20:32;7.15;;;3.67;;
2966;SDS011;1493;51.496;7.210;2023-02-27T08:23:01;7.70;;;4.40;;
2966;SDS011;1493;51.496;7.210;2023-02-27T08:25:28;7.63;;;3.70;;
2966;SDS011;1493;51.496;7.210;2023-02-27T08:27:55;13.05;;;3.95;;
2966;SDS011;1493;51.496;7.210;2023-02-27T08:30:23;6.47;;;4.00;;
2966;SDS011;1493;51.496;7.210;2023-02-27T08:32:50;6.70;;;4.97;;
2966;SDS011;1493;51.496;7.210;2023-02-27T08:35:17;4.25;;;3.80;;
2966;SDS011;1493;51.496;7.210;2023-02-27T08:37:44;9.70;;;3.97;;
2966;SDS011;1493;51.496;7.210;2023-02-27T08:40:11;7.47;;;4.45;;
2966;SDS011;1493;51.496;7.210;2023-02-27T08:42:38;8.90;;;4.95;;
2966;SDS011;1493;51.496;7.210;2023-02-27T08:45:05;11.52;;;3.97;;
2966;SDS011;1493;51.496;7.210;2023-02-27T08:47:35;6.72;;;3.63;;
2966;SDS011;1493;51.496;7.210;2023-02-27T08:50:02;10.13;;;4.90;;
2966;SDS011;1493;51.496;7.210;2023-02-27T08:52:30;7.20;;;4.53;;
2966;SDS011;1493;51.496;7.210;2023-02-27T08:54:56;9.48;;;4.78;;
2966;SDS011;1493;51.496;7.210;2023-02-27T08:57:23;11.73;;;4.22;;
2966;SDS011;1493;51.496;7.210;2023-02-27T08:59:50;6.78;;;4.25;;
2966;SDS011;1493;51.496;7.210;2023-02-27T09:02:17;7.83;;;5.03;;
2966;SDS011;1493;51.496;7.210;2023-02-27T09:04:49;6.67;;;5.13;;
2966;SDS011;1493;51.496;7.210;2023-02-27T09:07:16;6.13;;;4.43;;
2966;SDS011;1493;51.496;7.210;2023-02-27T09:09:43;4.73;;;3.77;;
2966;SDS011;1493;51.496;7.210;2023-02-27T09:12:10;5.90;;;3.83;;
2966;SDS011;1493;51.496;7.210;2023-02-27T09:14:37;5.80;;;3.87;;
2966;SDS011;1493;51.496;7.210;2023-02-27T09:17:04;4.40;;;3.33;;
2966;SDS011;1493;51.496;7.210;2023-02-27T09:19:32;5.70;;;3.83;;
2966;SDS011;1493;51.496;7.210;2023-02-27T09:22:02;5.23;;;3.40;;
2966;SDS011;1493;51.496;7.210;2023-02-27T09:24:29;4.13;;;2.70;;
2966;SDS011;1493;51.496;7.210;2023-02-27T09:26:55;5.00;;;2.87;;
2966;SDS011;1493;51.496;7.210;2023-02-27T09:29:22;4.20;;;2.60;;
2966;SDS011;1493;51.496;7.210;2023-02-27T09:31:51;4.20;;;2.87;;
2966;SDS011;1493;51.496;7.210;2023-02-27T09:34:18;10.70;;;2.57;;
2966;SDS011;1493;51.496;7.210;2023-02-27T09:36:45;6.47;;;2.60;;
2966;SDS011;1493;51.496;7.210;2023-02-27T09:39:13;4.60;;;3.13;;
2966;SDS011;1493;51.496;7.210;2023-02-27T09:41:49;3.67;;;2.23;;
2966;SDS011;1493;51.496;7.210;2023-02-27T09:44:24;4.53;;;2.33;;
2966;SDS011;1493;51.496;7.210;2023-02-27T09:46:56;6.87;;;2.60;;
2966;SDS011;1493;51.496;7.210;2023-02-27T09:49:25;6.07;;;2.53;;
2966;SDS011;1493;51.496;7.210;2023-02-27T09:51:57;5.40;;;2.07;;
2966;SDS011;1493;51.496;7.210;2023-02-27T09:54:27;4.20;;;2.20;;
2966;SDS011;1493;51.496;7.210;2023-02-27T09:56:58;5.83;;;2.13;;
2966;SDS011;1493;51.496;7.210;2023-02-27T09:59:30;4.77;;;3.07;;
2966;SDS011;1493;51.496;7.210;2023-02-27T10:02:04;8.23;;;2.80;;
2966;SDS011;1493;51.496;7.210;2023-02-27T10:09:56;3.50;;;1.80;;
2966;SDS011;1493;51.496;7.210;2023-02-27T10:12:41;4.37;;;2.20;;
2966;SDS011;1493;51.496;7.210;2023-02-27T10:15:16;5.60;;;3.20;;
2966;SDS011;1493;51.496;7.210;2023-02-27T10:17:50;6.00;;;2.50;;
2966;SDS011;1493;51.496;7.210;2023-02-27T10:20:23;11.63;;;3.77;;
2966;SDS011;1493;51.496;7.210;2023-02-27T10:22:53;4.07;;;2.30;;
2966;SDS011;1493;51.496;7.210;2023-02-27T10:25:24;6.63;;;2.73;;
2966;SDS011;1493;51.496;7.210;2023-02-27T10:27:52;6.03;;;3.67;;
2966;SDS011;1493;51.496;7.210;2023-02-27T10:30:22;7.57;;;3.60;;
2966;SDS011;1493;51.496;7.210;2023-02-27T10:32:51;7.77;;;4.40;;
2966;SDS011;1493;51.496;7.210;2023-02-27T10:35:25;7.57;;;3.90;;
2966;SDS011;1493;51.496;7.210;2023-02-27T10:37:57;7.40;;;4.17;;
2966;SDS011;1493;51.496;7.210;2023-02-27T10:40:28;7.73;;;4.23;;
2966;SDS011;1493;51.496;7.210;2023-02-27T10:42:55;6.97;;;4.17;;
2966;SDS011;1493;51.496;7.210;2023-02-27T10:45:25;6.33;;;3.50;;
2966;SDS011;1493;51.496;7.210;2023-02-27T10:47:52;9.47;;;3.63;;
2966;SDS011;1493;51.496;7.210;2023-02-27T10:50:20;6.67;;;2.90;;
2966;SDS011;1493;51.496;7.210;2023-02-27T10:52:53;8.87;;;2.90;;
2966;SDS011;1493;51.496;7.210;2023-02-27T10:55:23;5.30;;;1.90;;
2966;SDS011;1493;51.496;7.210;2023-02-27T10:57:53;3.70;;;1.90;;
2966;SDS011;1493;51.496;7.210;2023-02-27T11:00:23;4.03;;;1.63;;
2966;SDS011;1493;51.496;7.210;2023-02-27T11:02:55;4.47;;;1.50;;
2966;SDS011;1493;51.496;7.210;2023-02-27T11:05:24;4.53;;;1.50;;
2966;SDS011;1493;51.496;7.210;2023-02-27T11:07:53;6.83;;;2.03;;
2966;SDS011;1493;51.496;7.210;2023-02-27T11:10:21;5.10;;;1.70;;
2966;SDS011;1493;51.496;7.210;2023-02-27T11:13:00;5.00;;;1.97;;
2966;SDS011;1493;51.496;7.210;2023-02-27T11:15:30;4.90;;;2.33;;
2966;SDS011;1493;51.496;7.210;2023-02-27T11:20:45;5.50;;;1.93;;
2966;SDS011;1493;51.496;7.210;2023-02-27T11:23:16;3.67;;;1.60;;
2966;SDS011;1493;51.496;7.210;2023-02-27T11:25:44;3.97;;;1.80;;
2966;SDS011;1493;51.496;7.210;2023-02-27T11:28:19;4.27;;;1.73;;
2966;SDS011;1493;51.496;7.210;2023-02-27T11:30:54;4.47;;;1.87;;
2966;SDS011;1493;51.496;7.210;2023-02-27T11:33:23;2.40;;;1.40;;
2966;SDS011;1493;51.496;7.210;2023-02-27T11:35:51;3.50;;;2.17;;
2966;SDS011;1493;51.496;7.210;2023-02-27T11:38:20;3.53;;;2.33;;
2966;SDS011;1493;51.496;7.210;2023-02-27T11:40:50;3.70;;;1.60;;
2966;SDS011;1493;51.496;7.210;2023-02-27T11:43:21;2.87;;;2.00;;
2966;SDS011;1493;51.496;7.210;2023-02-27T11:45:51;3.00;;;1.70;;
2966;SDS011;1493;51.496;7.210;2023-02-27T11:48:22;3.43;;;2.20;;
2966;SDS011;1493;51.496;7.210;2023-02-27T11:51:01;3.27;;;1.77;;
2966;SDS011;1493;51.496;7.210;2023-02-27T11:54:00;8.13;;;2.53;;
2966;SDS011;1493;51.496;7.210;2023-02-27T11:56:43;3.27;;;1.87;;
2966;SDS011;1493;51.496;7.210;2023-02-27T11:59:21;3.30;;;1.70;;
2966;SDS011;1493;51.496;7.210;2023-02-27T12:01:54;3.40;;;1.27;;
2966;SDS011;1493;51.496;7.210;2023-02-27T12:04:26;4.27;;;2.00;;
2966;SDS011;1493;51.496;7.210;2023-02-27T12:07:00;4.60;;;1.80;;
2966;SDS011;1493;51.496;7.210;2023-02-27T12:09:33;3.57;;;1.67;;
2966;SDS011;1493;51.496;7.210;2023-02-27T12:12:06;2.53;;;1.43;;
2966;SDS011;1493;51.496;7.210;2023-02-27T12:14:44;3.90;;;1.57;;
2966;SDS011;1493;51.496;7.210;2023-02-27T12:17:14;4.90;;;1.60;;
2966;SDS011;1493;51.496;7.210;2023-02-27T12:19:51;4.33;;;1.90;;
2966;SDS011;1493;51.496;7.210;2023-02-27T12:22:26;3.30;;;1.33;;
2966;SDS011;1493;51.496;7.210;2023-02-27T12:24:58;3.50;;;1.77;;
2966;SDS011;1493;51.496;7.210;2023-02-27T12:27:28;4.83;;;1.70;;
2966;SDS011;1493;51.496;7.210;2023-02-27T12:30:09;3.07;;;1.80;;
2966;SDS011;1493;51.496;7.210;2023-02-27T12:32:43;2.33;;;1.37;;
2966;SDS011;1493;51.496;7.210;2023-02-27T12:35:15;4.00;;;2.00;;
2966;SDS011;1493;51.496;7.210;2023-02-27T12:37:45;4.10;;;1.70;;
2966;SDS011;1493;51.496;7.210;2023-02-27T12:40:13;4.40;;;1.90;;
2966;SDS011;1493;51.496;7.210;2023-02-27T12:42:51;4.80;;;1.67;;
2966;SDS011;1493;51.496;7.210;2023-02-27T12:45:43;3.53;;;1.63;;
2966;SDS011;1493;51.496;7.210;2023-02-27T12:48:22;4.00;;;1.70;;
2966;SDS011;1493;51.496;7.210;2023-02-27T12:51:02;6.57;;;1.43;;
2966;SDS011;1493;51.496;7.210;2023-02-27T12:53:49;3.03;;;2.03;;
2966;SDS011;1493;51.496;7.210;2023-02-27T12:56:41;8.37;;;2.00;;
2966;SDS011;1493;51.496;7.210;2023-02-27T12:59:21;3.23;;;1.80;;
2966;SDS011;1493;51.496;7.210;2023-02-27T13:02:15;3.93;;;2.00;;
2966;SDS011;1493;51.496;7.210;2023-02-27T13:05:02;4.90;;;1.60;;
2966;SDS011;1493;51.496;7.210;2023-02-27T13:07:42;3.70;;;2.20;;
2966;SDS011;1493;51.496;7.210;2023-02-27T13:10:18;5.73;;;2.80;;
2966;SDS011;1493;51.496;7.210;2023-02-27T13:12:49;4.67;;;1.93;;
2966;SDS011;1493;51.496;7.210;2023-02-27T13:15:21;4.13;;;2.10;;
2966;SDS011;1493;51.496;7.210;2023-02-27T13:17:54;4.00;;;3.03;;
2966;SDS011;1493;51.496;7.210;2023-02-27T13:20:26;5.60;;;2.27;;
2966;SDS011;1493;51.496;7.210;2023-02-27T13:22:57;4.80;;;2.30;;
2966;SDS011;1493;51.496;7.210;2023-02-27T13:25:32;10.63;;;2.70;;
2966;SDS011;1493;51.496;7.210;2023-02-27T13:28:00;3.30;;;2.13;;
2966;SDS011;1493;51.496;7.210;2023-02-27T13:30:32;4.10;;;2.13;;
2966;SDS011;1493;51.496;7.210;2023-02-27T13:33:04;5.17;;;2.13;;
2966;SDS011;1493;51.496;7.210;2023-02-27T13:35:46;5.73;;;2.20;;
2966;SDS011;1493;51.496;7.210;2023-02-27T13:38:30;9.50;;;2.73;;
2966;SDS011;1493;51.496;7.210;2023-02-27T13:53:14;3.87;;;2.23;;
2966;SDS011;1493;51.496;7.210;2023-02-27T13:55:43;5.03;;;1.87;;
2966;SDS011;1493;51.496;7.210;2023-02-27T13:58:14;4.43;;;2.00;;
2966;SDS011;1493;51.496;7.210;2023-02-27T14:00:52;4.90;;;2.20;;
2966;SDS011;1493;51.496;7.210;2023-02-27T14:03:22;2.97;;;1.80;;
2966;SDS011;1493;51.496;7.210;2023-02-27T14:05:51;5.00;;;2.30;;
2966;SDS011;1493;51.496;7.210;2023-02-27T14:08:22;4.57;;;2.10;;
2966;SDS011;1493;51.496;7.210;2023-02-27T14:10:54;4.00;;;2.40;;
2966;SDS011;1493;51.496;7.210;2023-02-27T14:25:32;3.53;;;2.23;;
2966;SDS011;1493;51.496;7.210;2023-02-27T14:28:03;5.60;;;2.33;;
2966;SDS011;1493;51.496;7.210;2023-02-27T14:30:37;3.60;;;1.93;;
2966;SDS011;1493;51.496;7.210;2023-02-27T14:33:19;4.47;;;2.20;;
2966;SDS011;1493;51.496;7.210;2023-02-27T14:35:51;4.57;;;2.40;;
2966;SDS011;1493;51.496;7.210;2023-02-27T14:38:22;3.80;;;2.07;;
2966;SDS011;1493;51.496;7.210;2023-02-27T14:40:57;3.97;;;2.20;;
2966;SDS011;1493;51.496;7.210;2023-02-27T14:43:32;6.33;;;2.17;;
2966;SDS011;1493;51.496;7.210;2023-02-27T14:46:05;4.13;;;2.23;;
2966;SDS011;1493;51.496;7.210;2023-02-27T14:48:36;2.80;;;1.70;;
2966;SDS011;1493;51.496;7.210;2023-02-27T14:51:04;3.50;;;2.33;;
2966;SDS011;1493;51.496;7.210;2023-02-27T14:53:31;3.40;;;1.67;;
2966;SDS011;1493;51.496;7.210;2023-02-27T14:56:00;3.73;;;1.90;;
2966;SDS011;1493;51.496;7.210;2023-02-27T14:58:26;2.90;;;1.47;;
2966;SDS011;1493;51.496;7.210;2023-02-27T15:01:01;3.83;;;2.10;;
2966;SDS011;1493;51.496;7.210;2023-02-27T15:03:37;5.03;;;2.80;;
2966;SDS011;1493;51.496;7.210;2023-02-27T15:06:11;2.60;;;1.50;;
2966;SDS011;1493;51.496;7.210;2023-02-27T15:08:41;4.40;;;1.97;;
2966;SDS011;1493;51.496;7.210;2023-02-27T15:11:14;3.50;;;1.97;;
2966;SDS011;1493;51.496;7.210;2023-02-27T15:13:43;5.13;;;2.27;;
2966;SDS011;1493;51.496;7.210;2023-02-27T15:16:25;3.43;;;2.20;;
2966;SDS011;1493;51.496;7.210;2023-02-27T15:19:00;4.00;;;2.77;;
2966;SDS011;1493;51.496;7.210;2023-02-27T15:21:37;4.33;;;2.13;;
2966;SDS011;1493;51.496;7.210;2023-02-27T15:24:06;4.50;;;2.27;;
2966;SDS011;1493;51.496;7.210;2023-02-27T15:26:48;5.43;;;1.87;;
2966;SDS011;1493;51.496;7.210;2023-02-27T15:29:19;3.93;;;1.90;;
2966;SDS011;1493;51.496;7.210;2023-02-27T15:31:48;4.67;;;1.73;;
2966;SDS011;1493;51.496;7.210;2023-02-27T15:34:16;4.60;;;1.70;;
2966;SDS011;1493;51.496;7.210;2023-02-27T15:36:44;2.67;;;1.70;;
2966;SDS011;1493;51.496;7.210;2023-02-27T15:39:14;3.07;;;1.80;;
2966;SDS011;1493;51.496;7.210;2023-02-27T15:41:44;4.43;;;1.60;;
2966;SDS011;1493;51.496;7.210;2023-02-27T15:44:14;3.43;;;1.30;;
2966;SDS011;1493;51.496;7.210;2023-02-27T15:46:42;3.20;;;1.47;;
2966;SDS011;1493;51.496;7.210;2023-02-27T15:49:13;5.23;;;1.90;;
2966;SDS011;1493;51.496;7.210;2023-02-27T15:51:45;4.03;;;1.80;;
2966;SDS011;1493;51.496;7.210;2023-02-27T15:54:13;5.87;;;2.33;;
2966;SDS011;1493;51.496;7.210;2023-02-27T15:56:40;4.23;;;1.50;;
2966;SDS011;1493;51.496;7.210;2023-02-27T15:59:08;3.30;;;1.63;;
2966;SDS011;1493;51.496;7.210;2023-02-27T16:01:42;2.43;;;1.67;;
2966;SDS011;1493;51.496;7.210;2023-02-27T16:04:15;3.97;;;1.93;;
2966;SDS011;1493;51.496;7.210;2023-02-27T16:06:50;5.10;;;1.77;;
2966;SDS011;1493;51.496;7.210;2023-02-27T16:09:24;2.50;;;1.40;;
2966;SDS011;1493;51.496;7.210;2023-02-27T16:20:49;3.93;;;1.20;;
2966;SDS011;1493;51.496;7.210;2023-02-27T16:23:21;3.20;;;1.50;;
2966;SDS011;1493;51.496;7.210;2023-02-27T16:25:59;2.97;;;1.20;;
2966;SDS011;1493;51.496;7.210;2023-02-27T16:28:29;4.60;;;1.80;;